South Palm Beach, Florida
Current Conditions -  °F | °C
As of 3:53 PM on Friday 31 Oct 2014 (Local Time) from KPBI Reporting Station
Light Rain Light Rain  
Wind Chill: 77°   Ceiling: 5500
Heat Index: 79°   Visibility: 10mi
Dew Point: 70°   Wind: 5mph
Humidity: 79%   Direction: 230°SW
Pressure: 29.76"   Gusts: NA
Location:  26.6941°N, 80.0379°W
Report Text: KPBI 311953Z 23004KT 10SM -RA FEW024 SCT040CB BKN055 25/21 A2976 RMK AO2 RAE07B46 TSE39 SLP076 CB N SE-SW MOV E CB DSNT NE-E P0000 T02500211
Loading
Personal Weather Stations






























Interactive Weather Map
Tropical Storm Tracking
New forecast layout! Learn more

10-Day Weather Forecast

Advertisements
Track Severe Weather on mobile